Terminal Aerodrome Forecast
Issued by NWS Hastings, NE

Home | Current Version | Previous Version | Text Only | Print | Product List | Glossary On
Versions: 1 2 3 4 5 6 7 8 9 10 11 12 13 14 15 16 17 18 19 20 21 22 23 24 25 26 27 28 29 30 31 32 33 34 35 36 37 38 39 40 41 42 43 44 45 46
000
FTUS43 KGID 050618 AAA
TAFGRI
TAF AMD
KGRI 050618Z 0506/0606 06006KT 1/4SM FG OVC002
     FM051500 08008KT 2SM BR OVC005
     FM051700 16012G20KT 6SM BR SCT005 BKN015
     FM060200 14012KT P6SM SCT015 BKN040=

USA.gov is the U.S. government's official web portal to all federal, state and local government web resources and services.